Sunizona, Arizona
Current Conditions -  °F | °C
As of 6:56 AM on Monday 24 Nov 2014 (Local Time) from KDUG Reporting Station
Clear Clear  
Wind Chill: 18°   Ceiling: Unl
Heat Index: 18°   Visibility: 10mi
Dew Point:   Wind: 3mph
Humidity: 50%   Direction: 180°S
Pressure: 30.18"   Gusts: NA
Location:  31.9924°N, 109.696°W
Report Text: KDUG 241356Z AUTO 18003KT 10SM CLR M08/M17 A3018 RMK AO2 SLP224 T10781167
Loading
Personal Weather Stations






























Interactive Weather Map New forecast layout! Learn more

10-Day Weather Forecast

Advertisements
Track Severe Weather on mobile